• Join FlightAware (Why Join?)
  • Login
  • US Flag 
02:50PM EDT


 

Airport Tracker/Info


-or-


 

Live Flight TrackerFlight Track Log ✈ WES8681 ✈ 18-Jun-2013 ✈ TQPF / AXA - TJSJ / SJU

Flight Track Log - Related Links

Times and Time Zones

All times are in EDT time to prevent confusion due to time zone crossing. See the WES8681 flight status page for this flight to view local times or setup timezone preferences in your user account.

Time Position Orientation Groundspeed Altitude Reporting Facility
EDT Latitude Longitude Course Direction KTS MPH feet Rate Location/Type
08:10AM 18.1167 -63.0667 212° Southwest 170 196 4,600  Level San Juan Center
08:11AM 18.0667 -63.1000 212° Southwest 180 207 5,700 1,020 Climbing San Juan Center
08:12AM 18.0333 -63.1333 224° Southwest 190 219 6,700 960 Climbing San Juan Center
08:13AM 18.0167 -63.1833 251° West 190 219 7,700 960 Climbing San Juan Center
08:14AM 18.0167 -63.2333 270° West 190 219 8,700 900 Climbing San Juan Center
08:15AM 18.0000 -63.2833 251° West 190 219 9,600 960 Climbing San Juan Center
08:16AM 17.9833 -63.3500 255° West 180 207 10,700 1,020 Climbing San Juan Center
08:17AM 17.9833 -63.4000 270° West 180 207 11,700 600 Climbing San Juan Center
08:18AM 17.9667 -63.4500 251° West 210 242 12,000 120 Climbing San Juan Center
08:19AM 17.9500 -63.5167 255° West 230 265 12,000  Level San Juan Center
08:20AM 17.9333 -63.5833 255° West 230 265 12,000  Level San Juan Center
08:21AM 17.9167 -63.6500 255° West 230 265 12,000  Level San Juan Center
08:22AM 17.9333 -63.7167 285° West 240 276 12,000  Level San Juan Center
08:23AM 17.9500 -63.7833 285° West 230 265 12,000 -60 Level San Juan Center
08:24AM 17.9667 -63.8500 285° West 230 265 11,900 -60 Descending San Juan Center
08:25AM 17.9833 -63.9167 285° West 240 276 11,900  Level San Juan Center
08:26AM 18.0000 -64.0000 282° West 240 276 11,900  Level San Juan Center
08:27AM 18.0167 -64.0500 289° West 230 265 11,900 -60 Level San Juan Center
08:28AM 18.0333 -64.1167 285° West 240 276 11,800 -300 Descending San Juan Center
08:29AM 18.0500 -64.2000 282° West 250 288 11,400 -360 Descending San Juan Center
08:30AM 18.0667 -64.2667 285° West 250 288 11,100 -420 Descending San Juan Center
08:31AM 18.0667 -64.3333 270° West 250 288 10,600 -360 Descending San Juan Center
08:32AM 18.0833 -64.4167 282° West 250 288 10,400 -300 Descending San Juan Center
08:33AM 18.1000 -64.4833 285° West 250 288 10,000 -240 Descending San Juan Center
08:34AM 18.1167 -64.5500 285° West 240 276 10,000  Level San Juan Center
08:35AM 18.1333 -64.6167 285° West 230 265 10,000  Level San Juan Center
08:36AM 18.1500 -64.6833 285° West 230 265 10,000  Level San Juan Center
08:37AM 18.1667 -64.7500 285° West 230 265 10,000  Level San Juan Center
08:38AM 18.1833 -64.8167 285° West 230 265 10,000  Level San Juan Center
08:39AM 18.2000 -64.8833 285° West 230 265 10,000  Level San Juan Center
08:40AM 18.2167 -64.9500 285° West 230 265 10,000  Level San Juan Center
08:41AM 18.2167 -65.0167 270° West 240 276 10,000  Level San Juan Center
08:42AM 18.2333 -65.0833 285° West 240 276 10,000  Level San Juan Center
08:43AM 18.2500 -65.1500 285° West 240 276 10,000  Level San Juan Center
08:44AM 18.2667 -65.2167 285° West 240 276 10,000 -120 Level San Juan Center
08:45AM 18.2833 -65.2833 285° West 230 265 9,800 -420 Descending San Juan Center
08:46AM 18.3000 -65.3667 282° West 250 288 9,200 -480 Descending San Juan Center
08:47AM 18.3167 -65.4333 285° West 250 288 8,900 -540 Descending San Juan Center
08:48AM 18.3333 -65.5000 285° West 260 299 8,200 -540 Descending San Juan Center
08:49AM 18.3500 -65.5667 285° West 250 288 7,900 -600 Descending San Juan Center
08:52AM 18.3500 -65.7833 270° West 250 288 6,000 -480 Descending San Juan Center
08:53AM 18.3500 -65.8500 270° West 230 265 6,000  Level San Juan Center
08:54AM 18.3833 -65.9000 305° West 220 253 6,000  Level San Juan Center
08:55AM 18.4333 -65.9500 317° Northwest 220 253 6,000  Level San Juan Center
08:56AM 18.4667 -65.9833 317° Northwest 200 230 6,000  Level San Juan Center
08:57AM 18.5000 -66.0500 298° West 210 242 6,000 -120 Level San Juan Center
08:58AM 18.5333 -66.1000 305° West 210 242 5,800 -720 Descending San Juan Center
08:59AM 18.5167 -66.1667 255° West 200 230 4,600 -1,080 Descending San Juan Center
09:00AM 18.4833 -66.1833 205° Southwest 170 196 3,700 -1,080 Descending San Juan Center
09:01AM 18.4500 -66.1667 155° Southeast 150 173 2,500 -660 Descending San Juan Center
09:02AM 18.4333 -66.1333 118° Southeast 140 161 2,400 -600 Descending San Juan Center
09:03AM 18.4167 -66.0833 109° East 140 161 1,400 -840 Descending San Juan Center
09:04AM 18.4167 -66.0500 90° East 130 150 800 -540 Descending San Juan Center
09:05AM 18.4333 -66.0167 62° Northeast 100 115 400 -420 Descending San Juan Center